Time;durP1;ratioP1;P1;durP2;ratioP2;P2;SDS_P1;SDS_P2;PMS_P1;PMS_P2;Temp;Humidity;BMP_temperature;BMP_pressure;BME280_temperature;BME280_humidity;BME280_pressure;Samples;Min_cycle;Max_cycle;Signal;HPM_P1;HPM_P2
2023/05/30 00:00:52;;;;;;;221.10;200.70;;;;;;;17.45;100.00;100919.53;4990719;28;20137;-78
2023/05/30 00:03:20;;;;;;;232.35;211.20;;;;;;;17.40;100.00;100922.97;4990234;28;20057;-77
2023/05/30 00:05:50;;;;;;;195.23;176.55;;;;;;;17.35;100.00;100928.25;4990081;28;20549;-78
2023/05/30 00:08:17;;;;;;;206.85;187.57;;;;;;;17.48;100.00;100935.94;4989163;28;20047;-78
2023/05/30 00:10:44;;;;;;;222.35;202.18;;;;;;;17.42;100.00;100934.25;4990402;28;20047;-78
2023/05/30 00:13:12;;;;;;;221.80;201.43;;;;;;;17.40;100.00;100929.16;4990297;28;20587;-78
2023/05/30 00:15:40;;;;;;;201.25;182.82;;;;;;;17.35;100.00;100928.25;4988964;28;20042;-78
2023/05/30 00:18:07;;;;;;;207.40;188.20;;;;;;;17.37;100.00;100931.50;4986766;28;20047;-78
2023/05/30 00:20:35;;;;;;;218.70;197.77;;;;;;;17.22;100.00;100921.34;4988353;28;20438;-78
2023/05/30 00:23:02;;;;;;;221.73;200.55;;;;;;;17.20;100.00;100928.81;4986385;28;20054;-78
2023/05/30 00:25:29;;;;;;;205.13;185.85;;;;;;;17.29;100.00;100929.22;4975571;28;20050;-78
2023/05/30 00:28:01;;;;;;;217.35;196.73;;;;;;;17.39;100.00;100930.19;4974173;28;20043;-78
2023/05/30 00:30:28;;;;;;;221.00;200.43;;;;;;;17.40;100.00;100928.34;4972306;28;20138;-77
2023/05/30 00:32:55;;;;;;;189.93;172.25;;;;;;;17.46;100.00;100921.16;4985979;28;20060;-78
2023/05/30 00:35:22;;;;;;;211.45;192.65;;;;;;;17.26;100.00;100927.84;4978593;28;20438;-78
2023/05/30 00:38:01;;;;;;;187.40;170.43;;;;;;;17.32;100.00;100934.91;4972227;28;20055;-78
2023/05/30 00:40:28;;;;;;;180.30;164.00;;;;;;;17.47;100.00;100936.22;4991093;28;20411;-78
2023/05/30 00:42:55;;;;;;;195.10;178.00;;;;;;;17.45;100.00;100927.59;4980405;28;20066;-80
2023/05/30 00:45:23;;;;;;;198.50;181.35;;;;;;;17.36;100.00;100922.63;4981963;28;20047;-81
2023/05/30 00:47:53;;;;;;;194.50;177.02;;;;;;;17.52;100.00;100925.53;4985652;28;20085;-80
2023/05/30 00:50:21;;;;;;;202.45;185.13;;;;;;;17.13;100.00;100915.56;4989985;28;20058;-81
2023/05/30 00:53:02;;;;;;;208.52;190.80;;;;;;;17.45;100.00;100923.03;4987469;28;20057;-81
2023/05/30 00:55:29;;;;;;;205.48;186.77;;;;;;;17.35;100.00;100925.56;4991649;28;20728;-81
2023/05/30 00:58:13;;;;;;;163.90;148.50;;;;;;;17.40;100.00;100933.72;4991938;28;20052;-81
2023/05/30 01:01:23;;;;;;;155.85;141.00;;;;;;;17.38;100.00;100933.94;4989523;28;20122;-81
2023/05/30 01:03:51;;;;;;;163.73;148.20;;;;;;;17.25;100.00;100938.84;4975298;28;20058;-81
2023/05/30 01:06:23;;;;;;;175.20;158.98;;;;;;;17.20;100.00;100933.38;4992406;28;20056;-81
2023/05/30 01:08:52;;;;;;;175.27;159.30;;;;;;;17.08;100.00;100933.47;4973186;28;20533;-81
2023/05/30 01:11:30;;;;;;;173.50;157.20;;;;;;;17.01;100.00;100939.00;4973758;28;20632;-81
2023/05/30 01:14:10;;;;;;;176.70;160.63;;;;;;;17.08;100.00;100936.16;4989447;28;20070;-81
2023/05/30 01:16:44;;;;;;;170.10;154.52;;;;;;;16.93;100.00;100934.03;4979440;28;20053;-81
2023/05/30 01:19:45;;;;;;;172.45;156.82;;;;;;;17.05;100.00;100942.00;4972976;28;20042;-78
2023/05/30 01:22:23;;;;;;;172.52;156.80;;;;;;;17.15;100.00;100939.47;4973527;28;20117;-77
2023/05/30 01:25:06;;;;;;;181.27;165.05;;;;;;;16.90;100.00;100939.88;4975704;28;20046;-77
2023/05/30 01:27:45;;;;;;;218.13;199.82;;;;;;;17.01;100.00;100936.31;4990837;28;20054;-80
2023/05/30 01:30:41;;;;;;;226.52;207.82;;;;;;;17.09;100.00;100929.72;4990873;28;20059;-81
2023/05/30 01:33:09;;;;;;;171.18;154.75;;;;;;;16.91;100.00;100930.75;4990169;28;20046;-81
2023/05/30 01:35:45;;;;;;;170.63;154.60;;;;;;;17.05;100.00;100928.59;4988175;28;20106;-80
2023/05/30 01:38:13;;;;;;;134.48;121.07;;;;;;;17.12;100.00;100930.03;4993584;28;20046;-81
2023/05/30 01:40:51;;;;;;;163.73;148.73;;;;;;;17.09;100.00;100929.72;4993496;28;20407;-81
2023/05/30 01:43:39;;;;;;;172.88;156.65;;;;;;;17.07;100.00;100924.59;4993475;28;20502;-81
2023/05/30 01:46:15;;;;;;;163.75;147.98;;;;;;;17.04;100.00;100926.97;4988150;28;20042;-81
2023/05/30 01:48:51;;;;;;;156.25;141.35;;;;;;;17.01;100.00;100927.47;4993435;28;20094;-81
2023/05/30 01:51:25;;;;;;;159.15;144.18;;;;;;;16.96;100.00;100927.38;4982156;28;20074;-81
2023/05/30 01:53:59;;;;;;;163.40;147.85;;;;;;;16.96;100.00;100936.22;4983688;28;20046;-81
2023/05/30 01:56:31;;;;;;;167.77;152.52;;;;;;;16.96;100.00;100933.53;4995310;28;20082;-81
2023/05/30 01:58:59;;;;;;;202.85;185.10;;;;;;;16.82;100.00;100935.69;4989204;28;20050;-81
2023/05/30 02:01:29;;;;;;;166.15;150.60;;;;;;;16.74;100.00;100937.97;4975838;28;20054;-81
2023/05/30 02:03:56;;;;;;;183.75;167.25;;;;;;;16.76;100.00;100941.22;4976003;28;20058;-81
2023/05/30 02:06:33;;;;;;;181.25;165.13;;;;;;;16.82;100.00;100933.03;4975890;28;20487;-78
2023/05/30 02:09:00;;;;;;;179.38;163.07;;;;;;;16.83;100.00;100944.59;4974923;28;20051;-78
2023/05/30 02:11:26;;;;;;;173.80;158.00;;;;;;;16.56;100.00;100944.34;4974996;28;20404;-78
2023/05/30 02:13:53;;;;;;;163.20;147.85;;;;;;;16.89;100.00;100943.63;4975001;28;20061;-81
2023/05/30 02:16:28;;;;;;;178.57;162.23;;;;;;;16.72;100.00;100938.19;4975645;28;20507;-78
2023/05/30 02:18:55;;;;;;;163.35;148.18;;;;;;;16.68;100.00;100942.41;4990001;28;20054;-79
2023/05/30 02:21:22;;;;;;;156.02;141.25;;;;;;;16.68;100.00;100942.41;4992988;28;20732;-78
2023/05/30 02:23:49;;;;;;;185.15;168.50;;;;;;;16.72;100.00;100943.56;4993916;28;20050;-81
2023/05/30 02:26:16;;;;;;;193.70;176.52;;;;;;;16.65;100.00;100942.91;4994165;28;20457;-80
2023/05/30 02:28:43;;;;;;;213.45;195.48;;;;;;;16.74;100.00;100946.81;4992628;28;20137;-81
2023/05/30 02:31:10;;;;;;;197.10;180.02;;;;;;;16.77;100.00;100948.25;4990214;28;20050;-78
2023/05/30 02:33:38;;;;;;;175.63;159.68;;;;;;;16.68;100.00;100945.91;4993517;28;20514;-82
2023/05/30 02:36:06;;;;;;;203.57;185.57;;;;;;;16.83;100.00;100945.41;4981877;28;20051;-81
2023/05/30 02:38:32;;;;;;;196.07;179.05;;;;;;;16.89;100.00;100938.25;4975446;28;20046;-81
2023/05/30 02:41:00;;;;;;;189.57;172.85;;;;;;;16.87;100.00;100941.16;4974730;28;20403;-81
2023/05/30 02:43:27;;;;;;;160.50;145.57;;;;;;;16.93;100.00;100940.19;4979576;28;20043;-78
2023/05/30 02:45:54;;;;;;;142.75;129.15;;;;;;;16.75;100.00;100948.44;4977602;28;20506;-78
2023/05/30 02:48:36;;;;;;;149.95;135.55;;;;;;;16.77;100.00;100949.03;4974679;28;20050;-81
2023/05/30 02:51:04;;;;;;;131.87;119.37;;;;;;;16.70;100.00;100946.50;4988227;28;20057;-77
2023/05/30 02:53:31;;;;;;;135.80;122.70;;;;;;;16.57;100.00;100949.44;4993987;28;20054;-78
2023/05/30 02:55:58;;;;;;;153.85;138.98;;;;;;;16.56;100.00;100947.84;4980399;28;20506;-78
2023/05/30 02:58:26;;;;;;;134.68;121.85;;;;;;;16.45;100.00;100943.31;4975793;28;20046;-78
2023/05/30 03:00:52;;;;;;;145.40;131.57;;;;;;;16.63;100.00;100943.13;4973405;28;20047;-78
2023/05/30 03:03:21;;;;;;;146.93;133.13;;;;;;;16.67;100.00;100955.03;4975634;28;20078;-78
2023/05/30 03:05:51;;;;;;;155.52;140.60;;;;;;;16.75;100.00;100945.75;4988461;28;20073;-78
2023/05/30 03:08:33;;;;;;;137.75;124.78;;;;;;;16.52;100.00;100953.91;4992038;28;20046;-81
2023/05/30 03:11:03;;;;;;;132.73;119.88;;;;;;;16.56;100.00;100947.03;4990064;28;20042;-81
2023/05/30 03:13:37;;;;;;;134.05;120.97;;;;;;;16.71;100.00;100952.66;4992539;28;20474;-77
2023/05/30 03:16:05;;;;;;;129.23;116.57;;;;;;;16.74;100.00;100954.06;4988569;28;20057;-78
2023/05/30 03:18:32;;;;;;;136.32;123.25;;;;;;;16.78;100.00;100960.59;4992494;28;20043;-81
2023/05/30 03:20:58;;;;;;;138.27;125.28;;;;;;;16.92;100.00;100961.91;4992300;28;20443;-82
2023/05/30 03:23:45;;;;;;;142.40;128.30;;;;;;;16.94;100.00;100968.66;4993300;28;20047;-82
2023/05/30 03:26:20;;;;;;;141.93;128.10;;;;;;;17.06;100.00;100971.25;4989098;28;20052;-81
2023/05/30 03:28:48;;;;;;;149.90;135.52;;;;;;;17.06;100.00;100970.44;4987621;28;20466;-81
2023/05/30 03:31:27;;;;;;;145.63;131.70;;;;;;;17.11;100.00;100978.59;4990996;28;20079;-82
2023/05/30 03:33:54;;;;;;;135.98;123.13;;;;;;;17.13;100.00;100982.66;4973988;28;20050;-81
2023/05/30 03:36:21;;;;;;;126.05;114.13;;;;;;;17.14;100.00;100986.97;4974278;28;20062;-81
2023/05/30 03:38:49;;;;;;;137.95;124.47;;;;;;;17.14;100.00;100989.66;4974334;28;20578;-82
2023/05/30 03:41:16;;;;;;;141.13;127.38;;;;;;;17.04;100.00;100986.81;4974380;28;20061;-81
2023/05/30 03:43:43;;;;;;;142.45;128.75;;;;;;;17.16;100.00;100986.75;4973941;28;20062;-81
2023/05/30 03:46:10;;;;;;;140.55;127.00;;;;;;;17.26;100.00;100989.59;4973914;28;20051;-78
2023/05/30 03:48:37;;;;;;;146.15;132.63;;;;;;;17.30;100.00;100987.22;4981610;28;20050;-78
2023/05/30 03:51:05;;;;;;;138.77;125.32;;;;;;;17.22;100.00;100990.34;4978027;28;20046;-78
2023/05/30 03:53:32;;;;;;;140.43;126.68;;;;;;;17.24;100.00;100993.56;4981783;28;20050;-78
2023/05/30 03:56:00;;;;;;;123.22;110.65;;;;;;;17.23;100.00;100998.13;4986349;28;20505;-78
2023/05/30 03:58:29;;;;;;;125.35;113.30;;;;;;;17.42;100.00;100996.00;4983063;28;20470;-78
2023/05/30 04:00:56;;;;;;;131.95;119.13;;;;;;;17.39;100.00;100993.81;4991022;28;20054;-77
2023/05/30 04:03:31;;;;;;;124.10;111.63;;;;;;;17.34;100.00;100996.44;4990033;28;20050;-78
2023/05/30 04:05:58;;;;;;;129.40;117.10;;;;;;;17.51;100.00;101004.47;4990633;28;20046;-81
2023/05/30 04:08:27;;;;;;;132.35;120.13;;;;;;;17.49;100.00;101009.25;4990093;28;20042;-81
2023/05/30 04:11:00;;;;;;;136.75;124.07;;;;;;;17.45;100.00;101003.56;4988332;28;20477;-81
2023/05/30 04:13:29;;;;;;;137.25;124.95;;;;;;;17.31;100.00;101003.09;4992835;28;20049;-81
2023/05/30 04:15:56;;;;;;;125.72;114.18;;;;;;;17.36;100.00;101005.84;4988568;28;20047;-82
2023/05/30 04:18:43;;;;;;;125.05;113.05;;;;;;;17.87;100.00;101005.84;4978138;28;20058;-81
2023/05/30 04:21:11;;;;;;;129.40;117.13;;;;;;;17.73;100.00;101015.28;4992712;28;20503;-81
2023/05/30 04:23:40;;;;;;;128.50;116.95;;;;;;;17.62;100.00;101019.69;4986132;28;20054;-82
2023/05/30 04:26:08;;;;;;;128.45;116.22;;;;;;;17.89;100.00;101017.16;4982977;28;20054;-81
2023/05/30 04:28:38;;;;;;;141.70;128.90;;;;;;;17.94;100.00;101016.41;4992260;28;20054;-81
2023/05/30 04:31:05;;;;;;;141.18;128.95;;;;;;;18.03;100.00;101006.84;4985582;28;20054;-81
2023/05/30 04:33:34;;;;;;;146.60;133.98;;;;;;;18.02;100.00;101014.13;4986329;28;20425;-81
2023/05/30 04:36:05;;;;;;;129.40;117.10;;;;;;;17.66;100.00;101017.31;4992802;28;20053;-82
2023/05/30 04:38:34;;;;;;;135.30;122.40;;;;;;;18.08;100.00;101018.50;4987925;28;20054;-78
2023/05/30 04:41:02;;;;;;;134.07;121.22;;;;;;;17.92;100.00;101022.03;4990106;28;20054;-78
2023/05/30 04:43:30;;;;;;;128.57;116.72;;;;;;;17.96;100.00;101022.34;4989370;28;20100;-78
2023/05/30 04:46:08;;;;;;;129.13;116.90;;;;;;;17.96;100.00;101023.16;4990648;28;20054;-78
2023/05/30 04:48:36;;;;;;;130.32;118.07;;;;;;;18.07;100.00;101026.81;4988511;28;20067;-78
2023/05/30 04:51:10;;;;;;;127.85;116.20;;;;;;;17.99;100.00;101024.56;4990704;28;20042;-78
2023/05/30 04:53:56;;;;;;;129.82;118.40;;;;;;;18.28;100.00;101033.28;4981227;28;20050;-81
2023/05/30 04:56:33;;;;;;;132.80;120.85;;;;;;;18.17;100.00;101037.69;4985028;28;20057;-81
2023/05/30 04:59:02;;;;;;;134.57;122.78;;;;;;;18.42;100.00;101028.31;4992034;28;20053;-80
2023/05/30 05:01:29;;;;;;;140.55;127.93;;;;;;;18.56;100.00;101028.78;4992031;28;20411;-81
2023/05/30 05:04:13;;;;;;;143.50;129.82;;;;;;;18.66;100.00;101032.38;4992489;28;20094;-81
2023/05/30 05:06:40;;;;;;;155.57;141.80;;;;;;;18.69;100.00;101023.00;4992417;28;20062;-81
2023/05/30 05:09:20;;;;;;;155.77;142.43;;;;;;;18.03;100.00;101031.03;4989271;28;20404;-81
2023/05/30 05:11:47;;;;;;;157.10;143.55;;;;;;;18.70;100.00;101028.13;4973976;28;20134;-81
2023/05/30 05:14:15;;;;;;;168.30;153.38;;;;;;;18.70;100.00;101028.13;4976613;28;20143;-81
2023/05/30 05:16:47;;;;;;;153.52;140.32;;;;;;;18.41;100.00;101038.28;4972393;28;20057;-81
2023/05/30 05:19:14;;;;;;;161.13;147.05;;;;;;;18.64;100.00;101029.16;4980805;28;20062;-82
2023/05/30 05:21:44;;;;;;;155.65;142.52;;;;;;;19.19;100.00;101032.69;4977269;28;20098;-81
2023/05/30 05:24:21;;;;;;;157.82;144.57;;;;;;;19.32;100.00;101034.94;4974438;28;20051;-81
2023/05/30 05:26:48;;;;;;;150.98;138.32;;;;;;;19.13;100.00;101034.53;4981177;28;20054;-81
2023/05/30 05:29:17;;;;;;;130.77;119.57;;;;;;;18.88;100.00;101027.00;4991181;28;20053;-81
2023/05/30 05:31:43;;;;;;;145.20;132.80;;;;;;;19.03;100.00;101029.03;4982429;28;20055;-82
2023/05/30 05:34:17;;;;;;;143.40;131.05;;;;;;;19.62;100.00;101028.19;4991862;28;20514;-82
2023/05/30 05:36:44;;;;;;;147.18;134.48;;;;;;;19.50;100.00;101031.06;4991852;28;20050;-81
2023/05/30 05:39:27;;;;;;;147.85;135.90;;;;;;;19.27;100.00;101042.97;4978597;28;20069;-81
2023/05/30 05:41:54;;;;;;;142.10;130.35;;;;;;;19.56;100.00;101043.50;4972251;28;20065;-81
2023/05/30 05:44:30;;;;;;;138.38;127.80;;;;;;;19.38;100.00;101038.50;4984369;28;20058;-82
2023/05/30 05:46:57;;;;;;;147.90;135.57;;;;;;;19.60;100.00;101041.91;4992056;28;20046;-81
2023/05/30 05:49:24;;;;;;;154.82;142.75;;;;;;;19.86;100.00;101040.25;4976086;28;20070;-81
2023/05/30 05:52:04;;;;;;;149.18;137.05;;;;;;;19.79;100.00;101039.66;4980144;28;20058;-81
2023/05/30 05:55:24;;;;;;;130.85;120.15;;;;;;;19.61;100.00;101042.72;4992056;28;20517;-82
2023/05/30 05:57:53;;;;;;;145.85;133.65;;;;;;;20.01;100.00;101039.53;4992157;28;20129;-81
2023/05/30 06:00:36;;;;;;;139.52;127.85;;;;;;;19.80;100.00;101035.06;4982604;28;20053;-81
2023/05/30 06:03:03;;;;;;;157.27;144.88;;;;;;;19.83;100.00;101031.88;4979618;28;20051;-81
2023/05/30 06:06:00;;;;;;;151.95;139.52;;;;;;;20.20;100.00;101039.88;4986010;28;20057;-81
2023/05/30 06:08:27;;;;;;;133.52;122.50;;;;;;;19.90;100.00;101045.91;4986709;28;20053;-78
2023/05/30 06:11:16;;;;;;;141.30;129.80;;;;;;;20.30;100.00;101039.94;4993398;28;20050;-78
2023/05/30 06:13:44;;;;;;;147.15;135.18;;;;;;;19.96;100.00;101042.19;4992244;28;20065;-78
2023/05/30 06:16:30;;;;;;;158.20;145.70;;;;;;;20.00;100.00;101045.16;4989848;28;20050;-78
2023/05/30 06:19:09;;;;;;;148.40;136.20;;;;;;;20.39;100.00;101051.03;4992703;28;20866;-81
2023/05/30 06:21:36;;;;;;;131.88;121.47;;;;;;;20.18;100.00;101043.91;4979353;28;20517;-78
2023/05/30 06:24:13;;;;;;;134.55;123.55;;;;;;;19.95;100.00;101042.44;4975137;28;20059;-79
2023/05/30 06:26:41;;;;;;;131.32;121.05;;;;;;;20.07;100.00;101051.16;4992269;28;20560;-78
2023/05/30 06:29:14;;;;;;;137.75;126.95;;;;;;;20.38;100.00;101052.09;4983018;28;20047;-78
2023/05/30 06:31:42;;;;;;;147.82;136.77;;;;;;;20.64;100.00;101044.16;4986843;28;20533;-78
2023/05/30 06:34:09;;;;;;;141.85;131.25;;;;;;;20.54;100.00;101047.59;4989658;28;20590;-78
2023/05/30 06:36:46;;;;;;;126.25;117.25;;;;;;;20.87;100.00;101050.94;4992205;28;20082;-81
2023/05/30 06:39:15;;;;;;;123.40;114.15;;;;;;;20.87;100.00;101042.84;4989303;28;20039;-81
2023/05/30 06:41:48;;;;;;;118.53;109.68;;;;;;;20.90;100.00;101047.72;4993924;28;20442;-82
2023/05/30 06:44:20;;;;;;;116.32;108.32;;;;;;;20.27;100.00;101045.88;4981318;28;20089;-82
2023/05/30 06:46:59;;;;;;;94.07;87.05;;;;;;;20.87;100.00;101043.66;4993858;28;20488;-81
2023/05/30 06:49:26;;;;;;;122.68;113.88;;;;;;;21.04;100.00;101044.25;4988727;28;21590;-78
2023/05/30 06:51:53;;;;;;;104.63;97.15;;;;;;;20.79;100.00;101042.31;4980328;28;20050;-78
2023/05/30 06:54:34;;;;;;;95.93;89.03;;;;;;;20.30;100.00;101041.81;4992701;28;20505;-78
2023/05/30 06:57:04;;;;;;;111.18;102.90;;;;;;;20.58;100.00;101040.63;4985285;28;20092;-78
2023/05/30 06:59:33;;;;;;;60.63;55.17;;;;;;;20.40;100.00;101044.56;4985603;28;20435;-78
2023/05/30 07:02:05;;;;;;;79.25;73.15;;;;;;;21.10;100.00;101041.56;4981134;28;20063;-78
2023/05/30 07:04:32;;;;;;;80.05;74.00;;;;;;;21.19;100.00;101035.34;4978180;28;20039;-78
2023/05/30 07:06:59;;;;;;;79.30;72.93;;;;;;;20.81;100.00;101039.31;4983386;28;20064;-78
2023/05/30 07:09:26;;;;;;;103.32;95.35;;;;;;;21.23;100.00;101038.31;4992943;28;20050;-79
2023/05/30 07:11:53;;;;;;;99.22;91.47;;;;;;;21.50;100.00;101051.59;4993076;28;20092;-82
2023/05/30 07:14:20;;;;;;;74.93;69.05;;;;;;;21.32;100.00;101035.88;4985573;28;20403;-82
2023/05/30 07:16:47;;;;;;;68.07;62.63;;;;;;;21.25;100.00;101042.38;4975266;28;20051;-78
2023/05/30 07:19:15;;;;;;;58.65;53.75;;;;;;;21.22;100.00;101042.09;4979170;28;20058;-77
2023/05/30 07:21:42;;;;;;;69.82;64.28;;;;;;;21.56;100.00;101052.41;4984303;28;20054;-78
2023/05/30 07:24:12;;;;;;;81.05;74.68;;;;;;;21.67;100.00;101051.31;4985314;28;20047;-78
2023/05/30 07:26:57;;;;;;;66.95;60.85;;;;;;;21.40;100.00;101043.50;4987201;28;20426;-78
2023/05/30 07:29:25;;;;;;;50.38;45.78;;;;;;;21.22;100.00;101042.91;4987797;28;20053;-78
2023/05/30 07:31:51;;;;;;;79.40;73.38;;;;;;;21.47;100.00;101052.13;4989143;28;20430;-78
2023/05/30 07:34:20;;;;;;;90.97;84.10;;;;;;;21.35;100.00;101048.84;4973657;28;20062;-76
2023/05/30 07:36:46;;;;;;;52.95;48.50;;;;;;;20.96;100.00;101046.66;4988536;28;20046;-70
2023/05/30 07:39:19;;;;;;;68.82;62.88;;;;;;;21.39;100.00;101052.66;4987984;28;20052;-81
2023/05/30 07:42:00;;;;;;;68.07;62.58;;;;;;;21.20;100.00;101055.06;4988874;28;20054;-82
2023/05/30 07:44:27;;;;;;;77.32;71.43;;;;;;;21.49;100.00;101053.50;4992610;28;20516;-78
2023/05/30 07:47:21;;;;;;;91.18;84.45;;;;;;;21.98;100.00;101057.47;4992380;28;20494;-82
2023/05/30 07:50:20;;;;;;;80.40;74.03;;;;;;;21.72;100.00;101059.41;4945403;29;21067;-82
2023/05/30 07:53:02;;;;;;;96.68;88.85;;;;;;;22.13;100.00;101051.22;4951126;29;20054;-82
2023/05/30 07:56:05;;;;;;;58.15;52.97;;;;;;;22.09;100.00;101053.69;4952759;29;20073;-81
2023/05/30 07:58:32;;;;;;;85.20;78.75;;;;;;;22.60;100.00;101058.09;4948140;28;20047;-81
2023/05/30 08:01:00;;;;;;;51.20;46.60;;;;;;;21.85;100.00;101060.75;4993174;28;20050;-82
2023/05/30 08:03:27;;;;;;;56.63;51.97;;;;;;;22.52;100.00;101051.38;4977896;28;20136;-83
2023/05/30 08:06:28;;;;;;;47.90;43.80;;;;;;;22.54;100.00;101064.63;4991710;28;20609;-82
2023/05/30 08:09:17;;;;;;;52.65;48.05;;;;;;;22.53;100.00;101057.59;4973885;28;20059;-82
2023/05/30 08:11:45;;;;;;;39.97;36.38;;;;;;;22.46;100.00;101059.81;4974374;28;20134;-82
2023/05/30 08:14:18;;;;;;;36.95;33.55;;;;;;;22.84;100.00;101048.25;4973578;28;20057;-82
2023/05/30 08:16:53;;;;;;;46.65;42.13;;;;;;;22.90;100.00;101053.63;4988146;28;20437;-81
2023/05/30 08:19:22;;;;;;;44.88;40.85;;;;;;;22.89;100.00;101044.69;4992372;28;20050;-82
2023/05/30 08:21:49;;;;;;;40.55;36.83;;;;;;;23.20;100.00;101042.59;4987957;28;20066;-81
2023/05/30 08:24:17;;;;;;;37.95;34.38;;;;;;;22.96;100.00;101044.41;4973412;28;20137;-78
2023/05/30 08:26:44;;;;;;;36.30;32.88;;;;;;;22.82;100.00;101039.59;4980512;28;20121;-78
2023/05/30 08:29:17;;;;;;;38.03;34.35;;;;;;;22.85;100.00;101046.34;4989451;28;20121;-78
2023/05/30 08:31:44;;;;;;;31.20;28.48;;;;;;;22.31;100.00;101041.72;4981292;28;20490;-78
2023/05/30 08:34:11;;;;;;;38.08;34.47;;;;;;;22.97;100.00;101041.41;4977429;28;20133;-78
2023/05/30 08:36:38;;;;;;;37.30;33.88;;;;;;;23.26;100.00;101032.53;4988667;28;20073;-78
2023/05/30 08:39:05;;;;;;;36.08;32.72;;;;;;;23.18;100.00;101033.13;4972983;28;20047;-78
2023/05/30 08:41:33;;;;;;;32.40;29.30;;;;;;;23.21;100.00;101035.31;4979865;28;20058;-78
2023/05/30 08:44:00;;;;;;;32.28;29.33;;;;;;;23.43;100.00;101027.53;4977160;28;20481;-78
2023/05/30 08:46:29;;;;;;;31.00;28.25;;;;;;;23.26;100.00;101030.63;4977178;28;20043;-81
2023/05/30 08:49:03;;;;;;;30.88;27.83;;;;;;;23.37;100.00;101027.84;4981441;28;20086;-81
2023/05/30 08:51:31;;;;;;;31.75;28.92;;;;;;;22.81;100.00;101035.28;4972661;28;20621;-82
2023/05/30 08:54:02;;;;;;;35.20;31.92;;;;;;;23.53;100.00;101030.13;4983496;28;20054;-81
2023/05/30 08:56:38;;;;;;;32.65;29.48;;;;;;;23.92;100.00;101031.16;4985025;28;20125;-82
2023/05/30 08:59:09;;;;;;;33.30;30.33;;;;;;;23.89;100.00;101032.53;4983480;28;20052;-82
2023/05/30 09:01:47;;;;;;;29.42;26.77;;;;;;;23.52;100.00;101030.44;4992046;28;20133;-81
2023/05/30 09:04:15;;;;;;;27.77;25.45;;;;;;;23.14;100.00;101032.88;4989810;28;20052;-82
2023/05/30 09:07:06;;;;;;;29.38;26.70;;;;;;;23.53;100.00;101032.84;4972720;28;20047;-81
2023/05/30 09:09:34;;;;;;;34.90;31.67;;;;;;;24.35;100.00;101033.91;4971358;28;20043;-78
2023/05/30 09:12:02;;;;;;;28.42;25.90;;;;;;;23.60;100.00;101037.13;4970607;28;20050;-78
2023/05/30 09:14:30;;;;;;;29.98;27.38;;;;;;;23.84;100.00;101040.69;4971245;28;20078;-78
2023/05/30 09:17:07;;;;;;;28.17;25.65;;;;;;;23.77;100.00;101035.63;4971921;28;20054;-82
2023/05/30 09:19:41;;;;;;;26.20;23.83;;;;;;;23.64;100.00;101038.19;4972414;28;20047;-82
2023/05/30 09:22:08;;;;;;;26.83;24.35;;;;;;;24.08;100.00;101037.19;4985425;28;20130;-82
2023/05/30 09:25:16;;;;;;;28.10;25.50;;;;;;;24.32;100.00;101039.91;4981507;28;20487;-82
2023/05/30 09:27:47;;;;;;;34.75;31.73;;;;;;;24.37;100.00;101035.22;4989850;28;20132;-82
2023/05/30 09:30:16;;;;;;;30.05;27.20;;;;;;;23.93;100.00;101040.88;4978225;28;20053;-82
2023/05/30 09:33:00;;;;;;;29.40;27.00;;;;;;;23.91;100.00;101037.69;4990803;28;20061;-82
2023/05/30 09:35:27;;;;;;;28.10;25.00;;;;;;;23.52;100.00;101041.28;4986400;28;20502;-82
2023/05/30 09:37:54;;;;;;;27.20;24.90;;;;;;;24.40;100.00;101033.84;4991637;28;20057;-82
2023/05/30 09:40:41;;;;;;;27.58;24.75;;;;;;;24.21;100.00;101031.91;4991885;28;20061;-82
2023/05/30 09:43:37;;;;;;;26.45;23.98;;;;;;;24.04;100.00;101026.13;4982474;28;20057;-82
2023/05/30 09:46:07;;;;;;;28.05;25.65;;;;;;;23.68;100.00;101026.47;4976217;28;20053;-82
2023/05/30 09:48:34;;;;;;;27.52;25.13;;;;;;;23.97;100.00;101025.69;4976097;28;20057;-78
2023/05/30 09:51:04;;;;;;;27.30;24.90;;;;;;;24.03;100.00;101021.00;4986600;28;20054;-78
2023/05/30 09:53:34;;;;;;;28.33;25.50;;;;;;;23.99;100.00;101018.88;4987883;28;20054;-78
2023/05/30 09:56:03;;;;;;;25.90;23.90;;;;;;;23.88;100.00;101009.22;4974528;28;20068;-81
2023/05/30 09:58:31;;;;;;;27.77;25.20;;;;;;;24.22;100.00;101003.66;4975876;28;20047;-82
2023/05/30 10:01:35;;;;;;;28.42;25.92;;;;;;;24.32;100.00;101008.13;4990504;28;20072;-82
2023/05/30 10:04:02;;;;;;;27.58;25.02;;;;;;;24.11;100.00;101007.59;4987589;28;20042;-81
2023/05/30 10:06:41;;;;;;;26.33;24.05;;;;;;;23.47;100.00;101001.44;4991466;28;20038;-82
2023/05/30 10:09:09;;;;;;;26.55;24.40;;;;;;;24.00;100.00;101001.47;4988196;28;20486;-82
2023/05/30 10:11:44;;;;;;;26.13;23.70;;;;;;;25.01;100.00;100991.47;4994971;28;20042;-82
2023/05/30 10:14:18;;;;;;;25.23;23.13;;;;;;;24.62;100.00;100987.16;4994940;28;20049;-81
2023/05/30 10:16:48;;;;;;;25.52;23.38;;;;;;;24.43;100.00;100979.81;4989307;28;20104;-82
2023/05/30 10:19:18;;;;;;;24.80;22.77;;;;;;;24.24;100.00;100995.25;4989432;28;20047;-78
2023/05/30 10:21:46;;;;;;;25.30;23.17;;;;;;;24.56;100.00;100991.84;4990454;28;20046;-78
2023/05/30 10:24:16;;;;;;;25.52;22.90;;;;;;;25.58;100.00;100981.25;4987078;28;20050;-82
2023/05/30 10:26:48;;;;;;;25.27;23.08;;;;;;;25.88;100.00;100988.06;4982086;28;20047;-81
2023/05/30 10:29:23;;;;;;;26.20;23.40;;;;;;;25.98;100.00;100984.34;4975547;28;20078;-82
2023/05/30 10:31:55;;;;;;;26.38;24.17;;;;;;;25.67;100.00;100979.47;4973471;28;20058;-81
2023/05/30 10:34:31;;;;;;;25.98;23.90;;;;;;;25.10;100.00;100986.97;4974329;28;20078;-81
2023/05/30 10:36:59;;;;;;;27.00;24.90;;;;;;;25.50;100.00;100988.19;4994048;28;20061;-81
2023/05/30 10:39:52;;;;;;;25.58;23.50;;;;;;;24.24;100.00;100989.81;4994314;28;20054;-82
2023/05/30 10:42:26;;;;;;;26.00;24.17;;;;;;;24.02;100.00;100984.91;4988497;28;20121;-82
2023/05/30 10:44:58;;;;;;;26.52;24.23;;;;;;;24.22;100.00;100983.84;4990870;28;20485;-78
2023/05/30 10:47:39;;;;;;;28.02;25.80;;;;;;;24.89;100.00;100987.28;4988540;28;20051;-82
2023/05/30 10:50:14;;;;;;;32.08;29.05;;;;;;;25.77;100.00;100978.44;4991752;28;20047;-79
2023/05/30 10:52:49;;;;;;;26.77;24.58;;;;;;;25.00;100.00;100976.28;4991213;28;20137;-78
2023/05/30 10:55:16;;;;;;;29.52;27.00;;;;;;;25.08;100.00;100976.41;4989875;28;20042;-79
2023/05/30 10:57:50;;;;;;;29.08;26.38;;;;;;;25.92;100.00;100975.47;4989807;28;20050;-82
2023/05/30 11:00:24;;;;;;;25.77;23.83;;;;;;;25.17;100.00;100968.38;4993823;28;20086;-81
2023/05/30 11:02:53;;;;;;;25.73;23.52;;;;;;;25.19;100.00;100968.91;4993680;28;20053;-81
2023/05/30 11:06:10;;;;;;;25.45;23.20;;;;;;;24.29;100.00;100967.22;4993547;28;20341;-82
2023/05/30 11:08:40;;;;;;;26.92;24.65;;;;;;;25.24;100.00;100959.88;4988638;28;20064;-78
2023/05/30 11:11:33;;;;;;;26.98;24.88;;;;;;;25.72;100.00;100962.22;4990709;28;20050;-79
2023/05/30 11:14:05;;;;;;;25.42;23.23;;;;;;;25.49;100.00;100951.25;4981139;28;20491;-82
2023/05/30 11:17:10;;;;;;;25.53;23.37;;;;;;;26.67;100.00;100951.56;4977869;28;20053;-81